Impacts TAF Board
For situational awareness. Not to be used for flight planning purposes.
IDs:

KSFO - San Francisco Intl, CA, US

Issued at 2107 UTC 18 Nov 2018
Updated at 2222 UTC 18 Nov 2018
Potential Impact None Slight Moderate High
Time<<19/11Z 19/12Z 19/13Z 19/14Z 19/15Z 19/16Z 19/17Z 19/18Z 19/19Z 19/20Z 19/21Z 19/22Z 19/23Z>>
Type PRVL PRVL PRVL PRVL PRVL PRVL PRVL PRVL PRVL PRVL PRVL PRVL PRVL
VIS 3 3 2 2 2 2 2 2 3 3 3 4 4
CIG 200 200 9 9 9 9 9 9 -- -- -- -- --
Cover BKN BKN BKN BKN BKN BKN BKN BKN SCT SCT SCT SCT SCT
FltCat MVFR MVFR IFR IFR IFR IFR IFR IFR MVFR MVFR MVFR MVFR MVFR
WX FU HZ FU HZ FU HZ FU HZ FU HZ FU HZ FU HZ FU HZ HZ HZ HZ HZ HZ
WDir 290 290 VRB VRB VRB VRB VRB VRB VRB VRB VRB 290 290
WSpd 5 5 3 3 3 3 3 3 3 3 3 5 5
WGst -- -- -- -- -- -- -- -- -- -- -- -- --
Raw TAF
KSFO 182107Z 1821/1924 03005KT 2SM HZ FU FEW008 SCT029 BKN200
  FM190400 29005KT 3SM FU HZ FEW008 SCT015 BKN200
  FM191300 VRB03KT 2SM FU HZ BKN009
  FM191900 VRB03KT 3SM HZ SCT011 SCT200
  FM192200 29005KT 4SM HZ FEW015 SCT150


METAR Board
Radar Display
Forecast Discussion
For situational awareness. Not to be used for flight planning purposes.